Time;durP1;ratioP1;P1;durP2;ratioP2;P2;SDS_P1;SDS_P2;PMS_P1;PMS_P2;Temp;Humidity;BMP_temperature;BMP_pressure;BME280_temperature;BME280_humidity;BME280_pressure;Samples;Min_cycle;Max_cycle;Signal;HPM_P1;HPM_P2
2022/05/27 00:00:19;;;;;;;19.83;7.63;;;22.30;89.00;;;;;;5061877;28;20242;-82
2022/05/27 00:02:50;;;;;;;15.33;7.30;;;22.30;88.90;;;;;;5060223;28;20202;-82
2022/05/27 00:05:19;;;;;;;14.83;7.20;;;22.30;88.60;;;;;;5060710;28;20198;-82
2022/05/27 00:07:46;;;;;;;16.83;7.57;;;22.30;88.40;;;;;;5077038;28;20206;-82
2022/05/27 00:10:16;;;;;;;15.23;8.37;;;22.30;88.30;;;;;;5061124;28;20218;-82
2022/05/27 00:12:43;;;;;;;17.77;7.63;;;22.20;88.30;;;;;;5060247;28;20305;-82
2022/05/27 00:15:11;;;;;;;13.47;7.43;;;22.20;88.80;;;;;;5059936;28;20240;-83
2022/05/27 00:17:38;;;;;;;20.53;8.43;;;22.20;89.00;;;;;;5043929;28;20234;-82
2022/05/27 00:20:09;;;;;;;14.03;7.27;;;22.20;89.10;;;;;;5060987;28;20237;-82
2022/05/27 00:22:37;;;;;;;12.97;7.03;;;22.20;89.10;;;;;;5030449;28;20206;-82
2022/05/27 00:25:05;;;;;;;15.23;7.70;;;22.20;88.90;;;;;;5049054;28;20305;-82
2022/05/27 00:27:32;;;;;;;12.43;7.73;;;22.10;88.90;;;;;;5076096;28;20210;-82
2022/05/27 00:29:59;;;;;;;12.23;7.20;;;22.10;89.10;;;;;;5060537;28;20206;-82
2022/05/27 00:32:29;;;;;;;14.30;7.23;;;22.10;89.10;;;;;;5059101;28;20289;-82
2022/05/27 00:34:56;;;;;;;14.83;7.70;;;22.10;89.00;;;;;;5059060;28;20206;-82
2022/05/27 00:37:25;;;;;;;12.30;6.90;;;22.00;88.90;;;;;;5058962;28;20221;-82
2022/05/27 00:39:52;;;;;;;17.23;8.10;;;22.00;88.80;;;;;;5075656;28;20282;-82
2022/05/27 00:42:19;;;;;;;19.63;7.60;;;22.00;88.70;;;;;;5075380;28;20632;-82
2022/05/27 00:44:46;;;;;;;16.97;6.97;;;22.00;88.70;;;;;;5075572;28;20653;-82
2022/05/27 00:47:18;;;;;;;12.97;7.33;;;22.00;88.60;;;;;;5042630;28;20210;-82
2022/05/27 00:50:00;;;;;;;9.77;6.90;;;22.00;88.70;;;;;;5042362;28;20220;-82
2022/05/27 00:52:32;;;;;;;16.73;7.93;;;21.90;88.70;;;;;;5058523;28;20202;-82
2022/05/27 00:55:01;;;;;;;21.17;8.53;;;21.90;88.90;;;;;;5042314;28;20257;-82
2022/05/27 00:57:38;;;;;;;12.60;7.63;;;21.90;89.20;;;;;;5042536;28;20670;-82
2022/05/27 01:00:09;;;;;;;15.23;8.00;;;21.90;89.30;;;;;;5058960;28;20309;-82
2022/05/27 01:02:37;;;;;;;17.07;8.80;;;21.90;89.40;;;;;;5058847;28;20201;-82
2022/05/27 01:05:17;;;;;;;10.73;8.33;;;21.90;89.50;;;;;;5038210;28;20548;-82
2022/05/27 01:07:46;;;;;;;14.87;8.90;;;21.90;89.70;;;;;;5048660;28;20202;-82
2022/05/27 01:10:16;;;;;;;12.80;7.93;;;21.90;89.70;;;;;;5034327;28;20220;-82
2022/05/27 01:13:02;;;;;;;16.40;9.37;;;21.90;89.80;;;;;;5054720;28;20216;-82
2022/05/27 01:16:03;;;;;;;18.17;8.23;;;22.00;89.90;;;;;;5075143;28;20194;-82
2022/05/27 01:22:11;;;;;;;16.53;8.63;;;21.90;89.90;;;;;;5062680;28;20217;-82
2022/05/27 01:24:56;;;;;;;14.83;8.20;;;21.80;90.20;;;;;;5054126;28;20212;-82
2022/05/27 01:27:28;;;;;;;16.90;10.63;;;21.90;90.30;;;;;;5055444;28;20206;-82
2022/05/27 01:30:19;;;;;;;16.13;9.57;;;21.90;90.40;;;;;;5059955;28;20263;-82
2022/05/27 01:32:58;;;;;;;28.30;9.67;;;21.90;90.60;;;;;;5049445;28;20644;-82
2022/05/27 01:35:31;;;;;;;26.10;8.77;;;21.90;90.50;;;;;;5058692;28;20297;-82
2022/05/27 01:38:12;;;;;;;23.93;8.87;;;21.90;90.30;;;;;;5026720;28;20220;-83
2022/05/27 01:41:04;;;;;;;19.77;9.27;;;21.90;90.20;;;;;;5061031;28;20222;-82
2022/05/27 01:43:59;;;;;;;20.23;9.10;;;21.90;90.20;;;;;;5048607;28;20234;-84
2022/05/27 01:46:36;;;;;;;28.97;8.70;;;21.90;90.10;;;;;;5058993;28;20208;-83
2022/05/27 01:49:18;;;;;;;37.53;9.37;;;21.90;90.10;;;;;;5058883;28;20225;-82
2022/05/27 01:51:52;;;;;;;24.13;9.00;;;21.90;90.10;;;;;;5034107;28;20214;-82
2022/05/27 01:54:35;;;;;;;18.10;9.13;;;21.90;90.10;;;;;;5056241;28;20257;-82
2022/05/27 01:57:23;;;;;;;32.13;10.63;;;21.90;90.10;;;;;;5056657;28;20228;-83
2022/05/27 02:00:06;;;;;;;26.43;9.23;;;21.90;90.20;;;;;;5058299;28;20209;-83
2022/05/27 02:02:44;;;;;;;32.50;10.47;;;21.90;90.50;;;;;;5043478;28;20202;-83
2022/05/27 02:05:27;;;;;;;24.43;9.83;;;21.90;90.30;;;;;;5059002;28;20352;-82
2022/05/27 02:07:58;;;;;;;24.47;9.80;;;21.90;90.30;;;;;;5042424;28;20245;-83
2022/05/27 02:10:31;;;;;;;24.10;11.00;;;21.80;90.20;;;;;;5060343;28;20212;-82
2022/05/27 02:13:08;;;;;;;36.37;11.93;;;21.80;90.20;;;;;;5058582;28;20210;-82
2022/05/27 02:15:44;;;;;;;31.90;11.70;;;21.80;90.30;;;;;;5057932;28;20225;-83
2022/05/27 02:18:28;;;;;;;28.73;11.57;;;21.80;90.40;;;;;;5058424;28;20642;-82
2022/05/27 02:21:18;;;;;;;34.37;12.27;;;21.80;90.50;;;;;;5041353;28;20257;-82
2022/05/27 02:23:49;;;;;;;25.07;14.10;;;21.90;90.50;;;;;;5057187;28;20228;-83
2022/05/27 02:26:21;;;;;;;29.43;16.37;;;21.90;90.60;;;;;;5054859;28;20585;-82
2022/05/27 02:29:10;;;;;;;29.87;15.50;;;21.90;90.70;;;;;;5066212;28;20197;-84
2022/05/27 02:31:41;;;;;;;23.30;13.10;;;22.00;90.90;;;;;;5064172;28;20224;-83
2022/05/27 02:37:07;;;;;;;26.77;14.70;;;22.00;90.80;;;;;;5064166;28;20202;-82
2022/05/27 02:39:35;;;;;;;26.37;13.43;;;22.00;90.80;;;;;;5057779;28;20211;-82
2022/05/27 02:42:14;;;;;;;24.07;14.57;;;22.00;90.80;;;;;;5063127;28;20237;-83
2022/05/27 02:45:19;;;;;;;26.43;13.70;;;21.90;90.80;;;;;;5062757;28;20217;-82
2022/05/27 02:47:53;;;;;;;20.57;12.73;;;22.00;90.90;;;;;;5062019;28;20206;-82
2022/05/27 02:50:36;;;;;;;23.63;13.17;;;22.00;90.80;;;;;;5063381;28;20206;-82
2022/05/27 02:53:23;;;;;;;21.97;13.00;;;21.90;90.90;;;;;;5062362;28;20268;-82
2022/05/27 02:56:01;;;;;;;22.20;12.30;;;21.90;91.00;;;;;;5041817;28;20328;-84
2022/05/27 02:58:30;;;;;;;26.00;12.43;;;21.90;91.00;;;;;;5060481;28;20560;-82
2022/05/27 03:00:58;;;;;;;28.00;12.50;;;21.80;91.00;;;;;;5053889;28;20233;-81
2022/05/27 03:03:26;;;;;;;21.87;12.33;;;21.80;91.10;;;;;;5043389;28;20238;-81
2022/05/27 03:06:05;;;;;;;20.60;11.97;;;21.80;91.10;;;;;;5043128;28;20222;-82
2022/05/27 03:09:13;;;;;;;23.47;12.63;;;21.80;91.00;;;;;;5059400;28;20214;-82
2022/05/27 03:12:26;;;;;;;19.60;12.97;;;21.80;91.10;;;;;;5059402;28;20222;-82
2022/05/27 03:15:34;;;;;;;25.63;13.60;;;21.80;91.10;;;;;;5022535;28;20223;-82
2022/05/27 03:18:22;;;;;;;26.87;13.57;;;21.80;91.10;;;;;;4961907;29;20209;-84
2022/05/27 03:21:17;;;;;;;25.03;12.43;;;21.80;91.10;;;;;;4977600;28;20293;-82
2022/05/27 03:24:12;;;;;;;12.77;9.50;;;21.70;91.10;;;;;;4999673;28;20294;-83
2022/05/27 03:27:12;;;;;;;18.87;11.23;;;21.60;90.90;;;;;;5054313;28;20214;-82
2022/05/27 03:29:56;;;;;;;24.60;12.90;;;21.60;90.90;;;;;;5044797;28;20633;-82
2022/05/27 03:32:36;;;;;;;28.03;13.50;;;21.50;90.90;;;;;;5056999;28;20289;-83
2022/05/27 03:35:13;;;;;;;31.73;14.77;;;21.50;90.90;;;;;;5060804;28;20582;-82
2022/05/27 03:37:55;;;;;;;27.83;14.83;;;21.50;90.90;;;;;;5060178;28;20205;-82
2022/05/27 03:40:32;;;;;;;32.37;14.27;;;21.50;91.10;;;;;;5052942;28;20221;-82
2022/05/27 03:43:01;;;;;;;27.50;14.90;;;21.50;91.20;;;;;;5061227;28;20289;-82
2022/05/27 03:45:30;;;;;;;23.67;14.57;;;21.40;91.10;;;;;;5039179;28;20573;-82
2022/05/27 03:47:57;;;;;;;28.00;14.50;;;21.40;91.10;;;;;;5061260;28;20654;-82
2022/05/27 03:50:26;;;;;;;32.87;15.90;;;21.40;91.20;;;;;;5062293;28;20549;-82
2022/05/27 03:52:56;;;;;;;29.80;15.10;;;21.40;91.20;;;;;;5021758;28;20212;-82
2022/05/27 03:55:26;;;;;;;28.77;14.13;;;21.40;91.20;;;;;;5052612;28;20276;-82
2022/05/27 03:57:54;;;;;;;29.37;15.10;;;21.40;91.20;;;;;;5044165;28;20253;-82
2022/05/27 04:00:23;;;;;;;34.80;15.03;;;21.40;91.20;;;;;;5060738;28;20256;-82
2022/05/27 04:02:51;;;;;;;33.07;15.40;;;21.40;91.10;;;;;;5044347;28;20633;-82
2022/05/27 04:05:24;;;;;;;34.43;15.37;;;21.40;91.10;;;;;;5029913;28;20266;-82
2022/05/27 04:07:51;;;;;;;30.67;13.73;;;21.30;91.00;;;;;;5043731;28;20207;-82
2022/05/27 04:10:19;;;;;;;29.03;14.50;;;21.30;90.90;;;;;;5021142;28;20638;-82
2022/05/27 04:12:46;;;;;;;39.77;14.97;;;21.30;90.90;;;;;;5043275;28;20617;-82
2022/05/27 04:15:17;;;;;;;29.07;14.00;;;21.20;90.90;;;;;;5060766;28;20183;-82
2022/05/27 04:17:45;;;;;;;24.60;12.47;;;21.30;91.00;;;;;;5062268;28;20202;-82
2022/05/27 04:20:17;;;;;;;31.53;14.30;;;21.30;91.00;;;;;;5061100;28;20657;-82
2022/05/27 04:22:45;;;;;;;37.27;14.90;;;21.20;91.00;;;;;;5061268;28;20305;-82
2022/05/27 04:25:14;;;;;;;28.60;14.03;;;21.30;91.10;;;;;;5035195;28;20549;-83
2022/05/27 04:27:42;;;;;;;28.63;14.23;;;21.30;91.10;;;;;;5061068;28;20252;-82
2022/05/27 04:30:11;;;;;;;26.93;14.87;;;21.30;91.10;;;;;;5044335;28;20211;-83
2022/05/27 04:32:39;;;;;;;36.57;15.43;;;21.30;91.10;;;;;;5060902;28;20207;-83
2022/05/27 04:35:08;;;;;;;27.10;14.03;;;21.30;91.10;;;;;;5061769;28;20201;-85
2022/05/27 04:37:36;;;;;;;24.50;15.00;;;21.30;91.20;;;;;;5051694;28;20195;-83
2022/05/27 04:40:05;;;;;;;36.67;16.57;;;21.30;91.10;;;;;;5056627;28;20698;-82
2022/05/27 04:42:32;;;;;;;32.90;16.43;;;21.40;91.10;;;;;;5022100;28;20277;-82
2022/05/27 04:44:59;;;;;;;34.10;16.80;;;21.40;91.10;;;;;;5041534;28;20207;-82
2022/05/27 04:47:27;;;;;;;32.30;16.63;;;21.40;91.20;;;;;;5054439;28;20214;-82
2022/05/27 04:49:55;;;;;;;39.03;17.50;;;21.40;91.30;;;;;;5060961;28;20263;-82
2022/05/27 04:52:31;;;;;;;29.13;16.50;;;21.40;91.40;;;;;;5004617;28;20216;-84
2022/05/27 04:55:02;;;;;;;29.80;17.50;;;21.50;91.50;;;;;;5043263;28;20289;-83
2022/05/27 04:57:35;;;;;;;38.47;18.73;;;21.50;91.50;;;;;;5033385;28;20240;-82
2022/05/27 05:00:13;;;;;;;33.80;16.53;;;21.60;91.50;;;;;;5030988;28;20210;-83
2022/05/27 05:02:44;;;;;;;28.80;17.40;;;21.70;91.60;;;;;;5048684;28;20226;-84
2022/05/27 05:05:17;;;;;;;29.27;16.83;;;21.80;91.50;;;;;;5067184;28;20206;-83
2022/05/27 05:07:47;;;;;;;27.30;17.20;;;21.90;91.80;;;;;;5063810;28;20252;-83
2022/05/27 05:10:18;;;;;;;33.00;18.03;;;22.00;91.50;;;;;;5047613;28;20658;-82
2022/05/27 05:12:46;;;;;;;28.77;17.13;;;22.20;91.40;;;;;;5063204;28;20310;-83
2022/05/27 05:15:14;;;;;;;30.57;17.70;;;22.40;91.20;;;;;;5040548;28;20232;-83
2022/05/27 05:17:43;;;;;;;36.90;19.27;;;22.50;90.90;;;;;;5062572;28;20232;-84
2022/05/27 05:20:17;;;;;;;29.43;18.17;;;22.70;90.60;;;;;;5059779;28;20206;-83
2022/05/27 05:22:44;;;;;;;30.87;17.33;;;22.80;90.40;;;;;;5060506;28;20229;-83
2022/05/27 05:25:12;;;;;;;27.40;18.87;;;22.90;90.30;;;;;;5061450;28;20261;-83
2022/05/27 05:27:41;;;;;;;21.60;16.93;;;22.90;90.20;;;;;;5060461;28;20202;-83
2022/05/27 05:30:12;;;;;;;27.40;18.00;;;23.00;90.20;;;;;;5062240;28;20628;-83
2022/05/27 05:32:39;;;;;;;28.33;16.27;;;23.00;90.20;;;;;;5061904;28;20257;-82
2022/05/27 05:35:10;;;;;;;31.90;16.83;;;23.20;90.30;;;;;;5043997;28;20263;-83
2022/05/27 05:37:39;;;;;;;32.53;18.30;;;23.30;90.30;;;;;;5039066;28;20214;-83
2022/05/27 05:40:10;;;;;;;29.27;17.63;;;23.40;90.30;;;;;;5060576;28;20718;-83
2022/05/27 05:42:38;;;;;;;33.00;17.77;;;23.60;90.20;;;;;;5060816;28;20222;-85
2022/05/27 05:45:07;;;;;;;30.97;19.00;;;23.70;90.10;;;;;;5060380;28;20203;-83
2022/05/27 05:47:38;;;;;;;31.63;20.00;;;23.90;89.80;;;;;;5060145;28;20206;-84
2022/05/27 05:50:06;;;;;;;28.10;19.67;;;24.10;89.20;;;;;;5059177;28;20220;-82
2022/05/27 05:52:34;;;;;;;25.07;19.47;;;24.30;88.60;;;;;;5058837;28;20218;-83
2022/05/27 05:55:02;;;;;;;32.17;20.60;;;24.50;87.70;;;;;;5042181;28;20333;-83
2022/05/27 05:57:29;;;;;;;24.17;19.13;;;24.60;86.00;;;;;;5058042;28;20257;-83
2022/05/27 05:59:59;;;;;;;24.50;20.63;;;24.60;85.40;;;;;;5042538;28;20210;-84
2022/05/27 06:02:37;;;;;;;26.10;20.13;;;24.80;85.20;;;;;;5063775;28;20222;-82
2022/05/27 06:05:09;;;;;;;27.83;19.97;;;24.80;85.00;;;;;;5045766;28;20267;-83
2022/05/27 06:07:37;;;;;;;31.07;20.70;;;24.90;84.60;;;;;;5061324;28;20217;-82
2022/05/27 06:10:05;;;;;;;27.77;20.07;;;25.00;84.50;;;;;;5062872;28;20229;-82
2022/05/27 06:12:34;;;;;;;31.83;20.17;;;25.20;84.40;;;;;;5062381;28;20403;-83
2022/05/27 06:15:07;;;;;;;32.67;23.20;;;25.30;83.30;;;;;;5044899;28;20226;-83
2022/05/27 06:17:40;;;;;;;29.43;21.20;;;25.30;83.10;;;;;;5045048;28;20211;-84
2022/05/27 06:20:08;;;;;;;31.00;19.37;;;25.30;83.50;;;;;;5061569;28;20216;-83
2022/05/27 06:22:36;;;;;;;25.20;17.97;;;25.20;83.50;;;;;;5061804;28;20295;-84
2022/05/27 06:25:03;;;;;;;23.53;17.07;;;25.20;83.30;;;;;;5060668;28;20219;-83
2022/05/27 06:27:30;;;;;;;27.87;19.83;;;25.30;83.20;;;;;;5061611;28;20655;-84
2022/05/27 06:35:32;;;;;;;25.20;15.80;;;25.60;82.70;;;;;;5037704;28;20521;-83
2022/05/27 06:37:59;;;;;;;22.23;13.93;;;25.80;81.80;;;;;;5041455;28;20211;-82
2022/05/27 06:40:27;;;;;;;25.73;14.83;;;25.90;80.70;;;;;;5061440;28;20210;-83
2022/05/27 06:42:54;;;;;;;20.07;13.50;;;26.00;80.30;;;;;;5046357;28;20218;-84
2022/05/27 06:45:22;;;;;;;23.80;13.53;;;26.10;80.20;;;;;;5043202;28;20211;-82
2022/05/27 06:47:49;;;;;;;22.73;12.13;;;26.20;79.80;;;;;;5062379;28;20655;-83
2022/05/27 06:50:17;;;;;;;24.30;13.23;;;26.30;79.20;;;;;;5060732;28;20702;-82
2022/05/27 06:52:45;;;;;;;30.13;11.43;;;26.50;78.50;;;;;;5045088;28;20236;-83
2022/05/27 06:55:14;;;;;;;20.87;10.07;;;26.60;77.40;;;;;;5044239;28;20263;-84
2022/05/27 06:57:45;;;;;;;19.70;9.43;;;26.70;76.70;;;;;;5060942;28;20223;-83
2022/05/27 07:00:13;;;;;;;15.83;7.87;;;26.80;76.00;;;;;;5060849;28;20212;-84
2022/05/27 07:02:40;;;;;;;14.33;7.60;;;26.90;74.80;;;;;;5060292;28;20261;-83
2022/05/27 07:05:10;;;;;;;13.83;6.33;;;26.90;74.40;;;;;;5061006;28;20625;-82
2022/05/27 07:07:38;;;;;;;20.87;7.40;;;26.90;74.00;;;;;;5053005;28;20572;-82
2022/05/27 07:10:06;;;;;;;9.90;5.30;;;26.90;73.40;;;;;;5059178;28;20205;-83
2022/05/27 07:12:34;;;;;;;15.73;7.03;;;27.00;72.50;;;;;;5060200;28;20287;-83
2022/05/27 07:15:01;;;;;;;15.10;5.67;;;27.00;71.40;;;;;;5060273;28;20207;-84
2022/05/27 07:17:29;;;;;;;13.20;6.40;;;27.10;71.50;;;;;;5043949;28;20210;-83
2022/05/27 07:19:56;;;;;;;16.20;5.67;;;27.10;71.40;;;;;;5076301;28;20249;-84
2022/05/27 07:22:25;;;;;;;12.57;5.00;;;27.20;69.50;;;;;;5075783;28;20238;-82
2022/05/27 07:24:53;;;;;;;12.47;5.17;;;27.20;69.00;;;;;;5060146;28;20218;-83
2022/05/27 07:27:21;;;;;;;15.87;5.63;;;27.30;68.20;;;;;;5059793;28;20214;-82
2022/05/27 07:29:51;;;;;;;18.37;6.23;;;27.40;68.10;;;;;;5059717;28;20210;-83
2022/05/27 07:32:18;;;;;;;12.20;5.87;;;27.50;68.00;;;;;;5060931;28;20218;-83
2022/05/27 07:34:46;;;;;;;15.97;6.53;;;27.50;68.70;;;;;;5060743;28;20229;-83
2022/05/27 07:37:14;;;;;;;18.33;6.97;;;27.60;68.10;;;;;;5034892;28;20231;-83
2022/05/27 07:39:43;;;;;;;9.77;5.67;;;27.70;67.60;;;;;;5061516;28;20253;-84
2022/05/27 07:42:10;;;;;;;10.90;6.23;;;27.80;66.00;;;;;;5077860;28;20240;-82
2022/05/27 07:44:37;;;;;;;15.03;5.77;;;27.90;66.10;;;;;;5060777;28;20263;-84
2022/05/27 07:47:06;;;;;;;16.10;5.87;;;28.00;66.60;;;;;;5045277;28;20213;-83
2022/05/27 07:49:33;;;;;;;14.53;5.90;;;28.20;66.40;;;;;;5048440;28;20224;-83
2022/05/27 07:52:02;;;;;;;14.13;6.23;;;28.40;66.10;;;;;;5065315;28;20296;-83
2022/05/27 07:54:30;;;;;;;12.20;6.30;;;28.60;65.60;;;;;;5045222;28;20238;-84
2022/05/27 07:56:58;;;;;;;15.37;6.10;;;28.90;64.40;;;;;;5058752;28;20210;-83
2022/05/27 07:59:28;;;;;;;14.50;6.57;;;29.20;64.30;;;;;;5058251;28;20258;-84
2022/05/27 08:01:55;;;;;;;19.90;6.43;;;29.60;62.90;;;;;;5074819;28;20663;-83
2022/05/27 08:04:23;;;;;;;11.97;5.50;;;29.80;62.10;;;;;;5076973;28;20206;-83
2022/05/27 08:06:54;;;;;;;11.77;5.70;;;29.80;62.20;;;;;;5055927;28;20226;-83
2022/05/27 08:09:21;;;;;;;13.73;4.60;;;29.70;61.40;;;;;;5059903;28;20206;-83
2022/05/27 08:11:49;;;;;;;12.23;4.60;;;29.60;61.20;;;;;;5059133;28;20213;-85
2022/05/27 08:14:16;;;;;;;12.57;5.77;;;29.50;59.90;;;;;;5060444;28;20229;-83
2022/05/27 08:16:43;;;;;;;11.50;5.37;;;29.30;58.20;;;;;;5042745;28;20206;-83
2022/05/27 08:19:11;;;;;;;16.20;4.77;;;29.10;58.50;;;;;;5059145;28;20673;-83
2022/05/27 08:21:39;;;;;;;12.33;5.70;;;28.90;59.00;;;;;;5059713;28;20226;-83
2022/05/27 08:24:09;;;;;;;16.53;5.77;;;28.80;60.20;;;;;;5042121;28;20202;-83
2022/05/27 08:26:38;;;;;;;12.07;4.83;;;28.70;60.40;;;;;;5074863;28;20248;-83
2022/05/27 08:29:09;;;;;;;11.53;4.90;;;28.60;61.00;;;;;;5059271;28;20669;-83
2022/05/27 08:31:37;;;;;;;12.03;5.53;;;28.50;60.10;;;;;;5075773;28;20265;-84
2022/05/27 08:39:47;;;;;;;16.67;5.57;;;28.30;62.60;;;;;;5059385;28;20686;-83
2022/05/27 08:42:36;;;;;;;8.93;4.60;;;28.40;61.60;;;;;;5059247;28;20302;-82
2022/05/27 08:45:20;;;;;;;15.93;5.83;;;28.40;61.10;;;;;;5058229;28;20232;-83
2022/05/27 08:47:56;;;;;;;17.07;5.67;;;28.60;60.90;;;;;;5075752;28;20206;-83
2022/05/27 08:50:30;;;;;;;13.20;5.13;;;28.90;61.20;;;;;;5058358;28;20214;-84
2022/05/27 08:53:13;;;;;;;11.57;5.00;;;29.20;60.70;;;;;;5058476;28;20647;-84
2022/05/27 09:01:24;;;;;;;10.93;5.33;;;29.50;57.90;;;;;;5059197;28;20233;-82
2022/05/27 09:04:25;;;;;;;8.67;4.63;;;29.50;58.60;;;;;;5041676;28;20207;-83
2022/05/27 09:07:06;;;;;;;13.37;4.63;;;29.50;57.60;;;;;;5005684;28;20207;-82
2022/05/27 09:09:36;;;;;;;7.43;4.60;;;29.50;58.80;;;;;;5019357;28;20211;-83
2022/05/27 09:12:28;;;;;;;9.20;4.47;;;29.70;59.50;;;;;;5018688;28;20200;-83
2022/05/27 09:15:12;;;;;;;9.43;5.70;;;29.80;58.80;;;;;;5046298;28;20207;-83
2022/05/27 09:18:01;;;;;;;10.00;4.93;;;29.90;57.80;;;;;;5050440;28;20237;-82
2022/05/27 09:20:38;;;;;;;11.07;4.50;;;30.20;57.60;;;;;;5041617;28;20236;-83
2022/05/27 09:23:41;;;;;;;8.87;4.10;;;30.40;57.30;;;;;;5041530;28;20226;-84
2022/05/27 09:26:18;;;;;;;14.87;4.70;;;30.70;55.80;;;;;;5055497;28;20203;-83
2022/05/27 09:29:13;;;;;;;8.53;4.90;;;31.10;54.20;;;;;;5057894;28;20217;-83
2022/05/27 09:31:49;;;;;;;12.43;4.70;;;31.20;53.10;;;;;;5057515;28;20202;-83
2022/05/27 09:34:16;;;;;;;11.07;4.23;;;31.30;52.30;;;;;;5057716;28;20563;-83
2022/05/27 09:36:49;;;;;;;11.20;4.20;;;31.30;52.80;;;;;;5073743;28;20225;-83
2022/05/27 09:39:21;;;;;;;9.60;4.50;;;31.20;54.00;;;;;;5058516;28;20230;-83
2022/05/27 09:41:57;;;;;;;9.80;4.73;;;31.20;54.50;;;;;;5041168;28;20275;-84
2022/05/27 09:44:35;;;;;;;12.30;4.97;;;31.20;54.00;;;;;;5052331;28;20271;-83
2022/05/27 09:47:04;;;;;;;13.43;5.30;;;31.40;53.00;;;;;;5057381;28;20183;-84
2022/05/27 09:49:34;;;;;;;11.77;5.13;;;31.50;52.70;;;;;;5057730;28;20214;-83
2022/05/27 09:52:03;;;;;;;16.97;4.93;;;31.50;51.40;;;;;;5074567;28;20241;-84
2022/05/27 09:55:00;;;;;;;13.97;4.37;;;31.40;52.00;;;;;;5041658;28;20268;-84
2022/05/27 09:57:32;;;;;;;11.27;4.17;;;31.30;52.40;;;;;;5036371;28;20306;-83
2022/05/27 10:00:04;;;;;;;13.23;4.70;;;31.20;52.50;;;;;;5057812;28;20222;-83
2022/05/27 10:02:36;;;;;;;9.17;4.87;;;31.10;52.10;;;;;;5058568;28;20229;-84
2022/05/27 10:05:13;;;;;;;9.07;4.70;;;31.00;52.90;;;;;;5075077;28;20213;-83
2022/05/27 10:07:52;;;;;;;9.47;4.57;;;31.00;53.70;;;;;;5055945;28;20277;-83
2022/05/27 10:10:34;;;;;;;10.50;4.63;;;31.10;53.90;;;;;;5037837;28;20234;-83
2022/05/27 10:13:24;;;;;;;14.57;4.73;;;31.20;53.30;;;;;;5057087;28;20206;-83
2022/05/27 10:15:51;;;;;;;11.80;5.10;;;31.40;52.40;;;;;;5057176;28;20221;-83
2022/05/27 10:18:24;;;;;;;6.43;3.70;;;31.60;52.00;;;;;;5057457;28;20647;-83
2022/05/27 10:21:04;;;;;;;11.07;4.77;;;31.80;51.90;;;;;;5040623;28;20210;-83
2022/05/27 10:23:37;;;;;;;14.10;4.87;;;32.10;51.40;;;;;;5058562;28;20246;-84
2022/05/27 10:26:33;;;;;;;10.73;4.57;;;32.30;51.50;;;;;;5047386;28;20210;-85
2022/05/27 10:29:09;;;;;;;15.00;5.03;;;32.60;50.60;;;;;;5033838;28;20622;-83
2022/05/27 10:31:37;;;;;;;8.50;4.33;;;32.80;49.80;;;;;;5048661;28;20211;-83
2022/05/27 10:34:04;;;;;;;7.80;4.03;;;32.60;48.90;;;;;;5037359;28;20211;-83
2022/05/27 10:36:37;;;;;;;11.33;4.93;;;32.40;49.60;;;;;;5056953;28;20230;-83
2022/05/27 10:39:27;;;;;;;7.83;4.13;;;32.20;51.40;;;;;;5040477;28;20532;-82
2022/05/27 10:42:19;;;;;;;6.50;4.00;;;32.30;50.00;;;;;;5037639;28;20223;-83
2022/05/27 10:44:59;;;;;;;7.90;3.93;;;32.30;49.90;;;;;;5048680;28;20211;-83
2022/05/27 10:47:47;;;;;;;9.77;3.73;;;32.40;48.40;;;;;;5052037;28;20223;-83
2022/05/27 10:50:29;;;;;;;7.37;4.10;;;32.40;48.10;;;;;;5049185;28;20217;-82
2022/05/27 10:53:24;;;;;;;10.60;4.23;;;32.40;48.20;;;;;;5078112;28;20262;-81
2022/05/27 10:56:33;;;;;;;8.13;4.57;;;32.50;49.10;;;;;;5045869;28;20342;-83
2022/05/27 11:02:35;;;;;;;11.57;4.03;;;32.80;50.40;;;;;;5063692;28;20664;-83
2022/05/27 11:05:19;;;;;;;8.57;3.13;;;32.90;50.30;;;;;;5021853;28;20233;-83
2022/05/27 11:08:01;;;;;;;6.23;4.13;;;33.20;48.80;;;;;;5043271;28;20636;-84
2022/05/27 11:10:53;;;;;;;8.87;4.33;;;33.30;47.50;;;;;;5043801;28;20597;-84
2022/05/27 11:17:06;;;;;;;10.13;4.53;;;33.60;49.00;;;;;;5046679;28;20211;-83
2022/05/27 11:19:40;;;;;;;12.10;4.50;;;33.80;48.90;;;;;;5060433;28;20278;-83
2022/05/27 11:22:37;;;;;;;14.53;4.73;;;33.80;49.00;;;;;;5043718;28;20210;-84
2022/05/27 11:25:36;;;;;;;14.07;4.70;;;33.90;49.30;;;;;;5060102;28;20237;-82
2022/05/27 11:28:09;;;;;;;11.00;4.07;;;33.90;49.60;;;;;;5060645;28;20301;-83
2022/05/27 11:30:39;;;;;;;10.33;4.53;;;34.00;49.90;;;;;;5061696;28;20246;-83
2022/05/27 11:33:06;;;;;;;10.13;4.67;;;34.10;50.00;;;;;;5052826;28;20256;-83
2022/05/27 11:36:10;;;;;;;8.63;4.33;;;34.20;48.90;;;;;;5060100;28;20277;-83
2022/05/27 11:39:06;;;;;;;11.03;4.37;;;34.20;49.40;;;;;;5061996;28;20538;-84
2022/05/27 11:42:01;;;;;;;16.10;4.10;;;34.30;49.10;;;;;;5059744;28;20225;-83
2022/05/27 11:44:42;;;;;;;8.60;4.10;;;34.30;48.60;;;;;;5045632;28;20271;-84
2022/05/27 11:47:37;;;;;;;9.43;4.30;;;34.30;48.10;;;;;;5058718;28;20198;-84
2022/05/27 11:50:23;;;;;;;11.47;4.03;;;34.30;47.90;;;;;;5021817;28;20265;-84
2022/05/27 11:53:51;;;;;;;7.80;3.90;;;34.20;47.10;;;;;;5041321;28;20210;-83
2022/05/27 11:56:21;;;;;;;18.97;5.23;;;34.20;46.50;;;;;;5024922;28;20241;-83
2022/05/27 11:59:00;;;;;;;8.50;3.97;;;34.20;48.90;;;;;;5060152;28;20194;-83
2022/05/27 12:01:38;;;;;;;11.93;4.30;;;34.20;47.70;;;;;;5058100;28;20208;-83
2022/05/27 12:04:26;;;;;;;9.10;3.93;;;34.20;47.10;;;;;;5058775;28;20720;-84
2022/05/27 12:07:14;;;;;;;13.03;5.03;;;34.10;46.40;;;;;;5072705;28;20281;-83
2022/05/27 12:10:08;;;;;;;6.20;3.67;;;33.70;46.60;;;;;;5029405;28;20278;-84
2022/05/27 12:12:49;;;;;;;8.17;4.13;;;33.50;48.80;;;;;;5076182;28;20276;-83
2022/05/27 12:15:49;;;;;;;12.53;4.03;;;33.40;49.60;;;;;;5075395;28;20292;-83
2022/05/27 12:18:26;;;;;;;7.67;3.90;;;33.40;49.20;;;;;;5059129;28;20206;-83
2022/05/27 12:20:55;;;;;;;11.87;4.03;;;33.60;48.60;;;;;;5059480;28;20252;-82
2022/05/27 12:23:27;;;;;;;6.43;3.93;;;33.70;48.60;;;;;;5058556;28;20560;-82
2022/05/27 12:25:58;;;;;;;7.97;3.97;;;33.70;48.60;;;;;;5058374;28;20206;-83
2022/05/27 12:28:30;;;;;;;7.43;4.23;;;33.80;47.90;;;;;;5058099;28;20202;-83
2022/05/27 12:31:02;;;;;;;7.67;3.73;;;33.90;47.60;;;;;;5057900;28;20250;-83
2022/05/27 12:33:30;;;;;;;11.83;4.40;;;33.90;47.40;;;;;;5058857;28;20214;-83
2022/05/27 12:36:25;;;;;;;10.57;3.70;;;33.90;46.80;;;;;;5059779;28;20217;-83
2022/05/27 12:38:57;;;;;;;7.50;3.60;;;33.90;46.60;;;;;;5058894;28;20225;-83
2022/05/27 12:41:40;;;;;;;8.97;4.33;;;34.00;46.40;;;;;;5060019;28;20690;-82
2022/05/27 12:44:20;;;;;;;7.83;4.00;;;34.00;47.00;;;;;;5042179;28;20239;-83
2022/05/27 12:46:55;;;;;;;12.43;4.00;;;33.90;45.40;;;;;;5046757;28;20203;-83
2022/05/27 12:50:03;;;;;;;10.83;4.00;;;33.90;46.60;;;;;;5075916;28;20262;-83
2022/05/27 12:52:31;;;;;;;9.40;3.97;;;33.90;46.50;;;;;;5033503;28;20210;-83
2022/05/27 12:55:06;;;;;;;9.13;3.60;;;33.90;46.50;;;;;;5060305;28;20242;-83
2022/05/27 13:03:36;;;;;;;8.90;3.67;;;34.00;46.60;;;;;;5057668;28;20209;-83
2022/05/27 13:06:17;;;;;;;6.77;3.47;;;34.00;46.70;;;;;;5059215;28;20233;-83
2022/05/27 13:08:58;;;;;;;8.57;3.30;;;34.10;46.00;;;;;;5054340;28;20211;-83
2022/05/27 13:11:34;;;;;;;10.13;3.90;;;34.10;45.90;;;;;;5042005;28;20214;-84
2022/05/27 13:14:06;;;;;;;9.40;3.87;;;34.20;45.20;;;;;;5057466;28;20649;-85
2022/05/27 13:17:30;;;;;;;7.87;3.97;;;34.20;45.40;;;;;;5060766;28;20279;-83
2022/05/27 13:20:05;;;;;;;7.83;3.43;;;34.20;46.00;;;;;;5060002;28;20210;-84
2022/05/27 13:22:46;;;;;;;7.30;3.50;;;34.20;45.70;;;;;;5058966;28;20216;-83
2022/05/27 13:25:26;;;;;;;11.17;3.57;;;34.20;45.20;;;;;;5060400;28;20671;-84
2022/05/27 13:28:03;;;;;;;11.87;4.30;;;34.10;45.40;;;;;;5044292;28;20297;-83
2022/05/27 13:31:04;;;;;;;15.60;4.43;;;34.10;45.70;;;;;;5055471;28;20214;-83
2022/05/27 13:33:46;;;;;;;9.17;3.77;;;34.00;45.40;;;;;;5048623;28;20222;-82
2022/05/27 13:36:38;;;;;;;9.00;3.73;;;34.00;46.10;;;;;;5059413;28;20202;-83
2022/05/27 13:39:13;;;;;;;7.97;3.63;;;33.90;45.40;;;;;;5053370;28;20195;-83
2022/05/27 13:41:46;;;;;;;10.60;3.77;;;33.90;46.00;;;;;;5043188;28;20242;-84
2022/05/27 13:44:23;;;;;;;5.37;3.33;;;33.90;46.10;;;;;;5059737;28;20222;-83
2022/05/27 13:46:57;;;;;;;9.77;4.43;;;34.00;46.50;;;;;;5076288;28;20201;-81
2022/05/27 13:49:30;;;;;;;12.70;4.50;;;34.00;46.10;;;;;;5057143;28;20201;-83
2022/05/27 13:52:17;;;;;;;7.23;4.13;;;34.00;45.00;;;;;;5047552;28;20228;-83
2022/05/27 13:54:45;;;;;;;10.07;3.93;;;34.00;44.40;;;;;;5045135;28;20573;-83